Time;durP1;ratioP1;P1;durP2;ratioP2;P2;SDS_P1;SDS_P2;PMS_P1;PMS_P2;Temp;Humidity;BMP_temperature;BMP_pressure;BME280_temperature;BME280_humidity;BME280_pressure;Samples;Min_cycle;Max_cycle;Signal;HPM_P1;HPM_P2
2023/06/28 00:00:34;;;;;;;3.50;2.03;;;;;;;;;;6164226;23;20388;-93
2023/06/28 00:03:00;;;;;;;3.37;1.60;;;;;;;;;;6165154;23;20395;-92
2023/06/28 00:05:26;;;;;;;4.00;1.87;;;;;;;;;;6164403;23;20577;-92
2023/06/28 00:07:52;;;;;;;3.40;1.90;;;;;;;;;;6167925;23;20442;-92
2023/06/28 00:10:18;;;;;;;3.40;1.60;;;;;;;;;;6168279;23;20376;-92
2023/06/28 00:12:44;;;;;;;2.97;1.87;;;;;;;;;;6163764;23;20376;-90
2023/06/28 00:15:10;;;;;;;3.77;1.50;;;;;;;;;;6165741;23;20372;-93
2023/06/28 00:17:36;;;;;;;3.37;2.30;;;;;;;;;;6163478;23;20380;-92
2023/06/28 00:20:07;;;;;;;6.07;1.83;;;;;;;;;;6166505;23;20384;-90
2023/06/28 00:22:33;;;;;;;4.10;2.00;;;;;;;;;;6166638;23;20444;-91
2023/06/28 00:24:59;;;;;;;4.50;2.63;;;;;;;;;;6165999;23;20392;-91
2023/06/28 00:27:26;;;;;;;5.43;2.13;;;;;;;;;;6162433;23;20390;-90
2023/06/28 00:29:52;;;;;;;3.13;1.83;;;;;;;;;;6164732;23;20372;-91
2023/06/28 00:32:18;;;;;;;3.83;2.17;;;;;;;;;;6161841;23;20455;-90
2023/06/28 00:34:44;;;;;;;8.07;2.27;;;;;;;;;;6163141;23;20384;-92
2023/06/28 00:37:10;;;;;;;3.17;1.93;;;;;;;;;;6163688;23;20432;-91
2023/06/28 00:39:36;;;;;;;3.03;1.50;;;;;;;;;;6167470;23;20519;-92
2023/06/28 00:42:02;;;;;;;5.30;2.03;;;;;;;;;;6161587;23;20384;-90
2023/06/28 00:44:28;;;;;;;3.53;1.87;;;;;;;;;;6162905;23;20372;-91
2023/06/28 00:46:58;;;;;;;3.10;2.33;;;;;;;;;;6164397;23;20379;-91
2023/06/28 00:49:32;;;;;;;4.50;1.77;;;;;;;;;;6167487;23;20566;-91
2023/06/28 00:51:58;;;;;;;10.70;2.70;;;;;;;;;;6163973;23;20494;-92
2023/06/28 00:54:24;;;;;;;2.83;1.90;;;;;;;;;;6164631;23;20407;-91
2023/06/28 00:56:51;;;;;;;5.33;2.17;;;;;;;;;;6162624;23;20384;-91
2023/06/28 00:59:20;;;;;;;7.93;2.17;;;;;;;;;;6164558;23;20383;-91
2023/06/28 01:01:49;;;;;;;3.23;2.00;;;;;;;;;;6164618;23;20533;-91
2023/06/28 01:04:15;;;;;;;6.63;2.20;;;;;;;;;;6166329;23;20403;-90
2023/06/28 01:06:41;;;;;;;5.40;2.37;;;;;;;;;;6165102;23;20439;-91
2023/06/28 01:09:08;;;;;;;4.90;2.43;;;;;;;;;;6164098;23;20431;-91
2023/06/28 01:11:34;;;;;;;7.17;2.00;;;;;;;;;;6166296;23;20383;-91
2023/06/28 01:14:00;;;;;;;3.83;2.00;;;;;;;;;;6165145;23;21012;-91
2023/06/28 01:16:26;;;;;;;6.63;2.03;;;;;;;;;;6170101;23;20399;-91
2023/06/28 01:18:52;;;;;;;3.67;2.00;;;;;;;;;;6166273;23;20372;-91
2023/06/28 01:26:30;;;;;;;2.90;2.00;;;;;;;;;;6163428;23;20416;-92
2023/06/28 01:28:56;;;;;;;4.17;3.57;;;;;;;;;;6113577;23;20451;-92
2023/06/28 01:31:22;;;;;;;5.93;2.40;;;;;;;;;;6140998;23;20369;-92
2023/06/28 01:33:48;;;;;;;5.27;2.40;;;;;;;;;;6113491;23;20408;-91
2023/06/28 01:36:14;;;;;;;4.70;1.97;;;;;;;;;;6113117;23;20379;-91
2023/06/28 01:38:40;;;;;;;3.47;1.90;;;;;;;;;;6113528;23;20376;-91
2023/06/28 01:41:06;;;;;;;3.90;2.43;;;;;;;;;;6116257;23;20380;-91
2023/06/28 01:43:32;;;;;;;4.33;2.23;;;;;;;;;;6113536;23;20384;-92
2023/06/28 01:45:58;;;;;;;4.10;2.33;;;;;;;;;;6114029;23;20385;-91
2023/06/28 01:48:24;;;;;;;3.80;2.20;;;;;;;;;;6111873;23;20419;-92
2023/06/28 01:50:51;;;;;;;3.50;2.27;;;;;;;;;;6112674;23;20408;-90
2023/06/28 01:53:17;;;;;;;6.47;2.53;;;;;;;;;;6113419;23;20492;-92
2023/06/28 01:55:43;;;;;;;3.50;2.17;;;;;;;;;;6116210;23;20392;-92
2023/06/28 01:58:09;;;;;;;4.10;2.50;;;;;;;;;;6114535;23;20471;-92
2023/06/28 02:00:35;;;;;;;7.43;2.67;;;;;;;;;;6114369;23;20476;-92
2023/06/28 02:03:01;;;;;;;3.40;2.10;;;;;;;;;;6114846;23;20377;-93
2023/06/28 02:05:27;;;;;;;5.67;2.30;;;;;;;;;;6118680;23;20715;-92
2023/06/28 02:07:53;;;;;;;3.10;2.67;;;;;;;;;;6114624;23;20476;-92
2023/06/28 02:10:23;;;;;;;6.70;3.10;;;;;;;;;;6116171;23;20401;-92
2023/06/28 02:12:49;;;;;;;4.40;2.30;;;;;;;;;;6115249;23;20392;-92
2023/06/28 02:15:15;;;;;;;4.00;2.23;;;;;;;;;;6113497;23;20389;-92
2023/06/28 02:17:41;;;;;;;2.90;2.20;;;;;;;;;;6112295;23;20377;-92
2023/06/28 02:20:10;;;;;;;4.67;2.00;;;;;;;;;;6113123;23;20451;-92
2023/06/28 02:22:36;;;;;;;3.13;2.70;;;;;;;;;;6113468;23;20872;-91
2023/06/28 02:25:02;;;;;;;5.60;2.40;;;;;;;;;;6112604;23;20443;-92
2023/06/28 02:27:28;;;;;;;3.57;2.60;;;;;;;;;;6115605;23;20409;-92
2023/06/28 02:29:56;;;;;;;2.80;2.60;;;;;;;;;;6112720;23;20372;-92
2023/06/28 02:32:22;;;;;;;5.63;2.50;;;;;;;;;;6113450;23;20377;-92
2023/06/28 02:34:48;;;;;;;6.00;3.03;;;;;;;;;;6112379;23;20377;-92
2023/06/28 02:37:14;;;;;;;4.43;2.20;;;;;;;;;;6116192;23;20440;-91
2023/06/28 02:39:40;;;;;;;4.00;2.40;;;;;;;;;;6111675;23;20380;-91
2023/06/28 02:42:06;;;;;;;8.90;2.67;;;;;;;;;;6115550;23;20756;-92
2023/06/28 02:44:34;;;;;;;4.83;2.27;;;;;;;;;;6114187;23;20384;-92
2023/06/28 02:47:00;;;;;;;5.30;2.40;;;;;;;;;;6117031;23;20898;-91
2023/06/28 02:49:26;;;;;;;3.60;2.23;;;;;;;;;;6115076;23;20460;-91
2023/06/28 02:51:52;;;;;;;4.00;2.10;;;;;;;;;;6114979;23;20389;-91
2023/06/28 02:54:19;;;;;;;3.50;2.60;;;;;;;;;;6112211;23;20389;-91
2023/06/28 02:56:45;;;;;;;4.43;2.63;;;;;;;;;;6113889;23;20399;-91
2023/06/28 02:59:11;;;;;;;5.50;2.60;;;;;;;;;;6115202;23;20840;-90
2023/06/28 03:01:37;;;;;;;2.70;2.27;;;;;;;;;;6112685;23;20388;-90
2023/06/28 03:04:03;;;;;;;6.47;2.37;;;;;;;;;;6112404;23;20389;-90
2023/06/28 03:06:29;;;;;;;4.60;2.73;;;;;;;;;;6114705;23;20409;-91
2023/06/28 03:08:55;;;;;;;5.13;3.23;;;;;;;;;;6117495;23;20413;-91
2023/06/28 03:11:21;;;;;;;6.17;3.00;;;;;;;;;;6114459;23;20385;-90
2023/06/28 03:13:47;;;;;;;2.47;2.13;;;;;;;;;;6113839;23;20483;-91
2023/06/28 03:16:13;;;;;;;2.87;2.47;;;;;;;;;;6112569;23;20420;-91
2023/06/28 03:18:39;;;;;;;5.50;2.50;;;;;;;;;;6116321;23;20421;-91
2023/06/28 03:21:05;;;;;;;3.20;2.50;;;;;;;;;;6112264;23;20373;-91
2023/06/28 03:23:31;;;;;;;3.80;2.50;;;;;;;;;;6111544;23;20380;-90
2023/06/28 03:25:57;;;;;;;5.83;3.03;;;;;;;;;;6109807;23;20479;-90
2023/06/28 03:28:23;;;;;;;8.80;3.20;;;;;;;;;;6112616;23;20935;-91
2023/06/28 03:30:49;;;;;;;5.33;2.93;;;;;;;;;;6110129;23;20392;-90
2023/06/28 03:33:15;;;;;;;3.90;2.90;;;;;;;;;;6110929;23;20377;-91
2023/06/28 03:35:41;;;;;;;4.73;2.63;;;;;;;;;;6111431;23;20833;-90
2023/06/28 03:38:07;;;;;;;6.97;3.43;;;;;;;;;;6111972;23;20435;-91
2023/06/28 03:40:36;;;;;;;4.90;3.30;;;;;;;;;;6136777;23;20375;-90
2023/06/28 03:43:02;;;;;;;6.77;3.47;;;;;;;;;;6115215;23;20377;-91
2023/06/28 03:45:29;;;;;;;3.97;3.00;;;;;;;;;;6112915;23;20404;-90
2023/06/28 03:47:55;;;;;;;6.97;2.37;;;;;;;;;;6115998;23;20421;-92
2023/06/28 03:50:21;;;;;;;2.97;1.60;;;;;;;;;;6112822;23;20385;-91
2023/06/28 03:52:47;;;;;;;8.10;2.50;;;;;;;;;;6112502;23;20449;-91
2023/06/28 03:55:13;;;;;;;3.60;2.50;;;;;;;;;;6112687;23;20388;-91
2023/06/28 03:57:40;;;;;;;4.00;2.60;;;;;;;;;;6113229;23;20385;-91
2023/06/28 04:00:10;;;;;;;5.53;2.97;;;;;;;;;;6114480;23;20415;-91
2023/06/28 04:02:36;;;;;;;6.80;2.50;;;;;;;;;;6112746;23;20377;-91
2023/06/28 04:05:03;;;;;;;4.60;2.50;;;;;;;;;;6116471;23;20691;-94
2023/06/28 04:07:29;;;;;;;4.93;2.33;;;;;;;;;;6115880;23;20369;-95
2023/06/28 04:09:55;;;;;;;2.93;2.30;;;;;;;;;;6115910;23;20396;-94
2023/06/28 04:12:21;;;;;;;3.40;2.30;;;;;;;;;;6111918;23;20405;-93
2023/06/28 04:14:48;;;;;;;6.73;2.80;;;;;;;;;;6113633;23;20396;-93
2023/06/28 04:17:14;;;;;;;3.30;2.33;;;;;;;;;;6114731;23;20381;-94
2023/06/28 04:19:41;;;;;;;4.40;2.40;;;;;;;;;;6138900;23;20424;-93
2023/06/28 04:22:07;;;;;;;6.70;2.90;;;;;;;;;;6115777;23;20416;-95
2023/06/28 04:24:33;;;;;;;5.33;2.50;;;;;;;;;;6114711;23;20404;-90
2023/06/28 04:27:00;;;;;;;4.03;2.30;;;;;;;;;;6110830;23;20401;-90
2023/06/28 04:29:27;;;;;;;3.03;2.33;;;;;;;;;;6135699;23;20421;-92
2023/06/28 04:31:53;;;;;;;7.43;2.53;;;;;;;;;;6110428;23;20381;-90
2023/06/28 04:34:19;;;;;;;5.40;2.43;;;;;;;;;;6114720;23;20868;-93
2023/06/28 04:39:21;;;;;;;10.37;6.63;;;;;;;;;;6195685;23;20470;-93
2023/06/28 04:41:47;;;;;;;18.43;10.90;;;;;;;;;;6191086;23;20395;-92
2023/06/28 04:44:14;;;;;;;15.73;9.30;;;;;;;;;;6192821;23;20838;-92
2023/06/28 04:46:44;;;;;;;7.63;3.70;;;;;;;;;;6193539;23;20396;-92
2023/06/28 04:49:10;;;;;;;10.73;3.87;;;;;;;;;;6190370;23;20451;-92
2023/06/28 04:51:36;;;;;;;7.13;3.30;;;;;;;;;;6196513;23;20406;-92
2023/06/28 04:54:02;;;;;;;10.43;4.07;;;;;;;;;;6192867;23;20363;-92
2023/06/28 04:56:29;;;;;;;5.50;4.10;;;;;;;;;;6194877;23;20499;-92
2023/06/28 04:58:55;;;;;;;6.87;4.17;;;;;;;;;;6192104;23;20932;-91
2023/06/28 05:01:21;;;;;;;6.57;4.50;;;;;;;;;;6189565;23;20410;-91
2023/06/28 05:03:47;;;;;;;8.17;5.07;;;;;;;;;;6190875;23;20415;-93
2023/06/28 05:06:15;;;;;;;9.67;3.97;;;;;;;;;;6194180;23;20376;-94
2023/06/28 05:08:41;;;;;;;3.00;2.53;;;;;;;;;;6195940;23;20427;-91
2023/06/28 05:11:07;;;;;;;3.63;2.90;;;;;;;;;;6189495;23;20395;-91
2023/06/28 05:13:33;;;;;;;3.17;2.47;;;;;;;;;;6191622;23;20384;-90
2023/06/28 05:16:00;;;;;;;4.90;2.47;;;;;;;;;;6191700;23;20416;-91
2023/06/28 05:18:26;;;;;;;3.93;3.07;;;;;;;;;;6191720;23;21287;-91
2023/06/28 05:20:52;;;;;;;4.57;2.80;;;;;;;;;;6189440;23;20430;-91
2023/06/28 05:23:21;;;;;;;4.43;2.90;;;;;;;;;;6193935;23;20411;-92
2023/06/28 05:25:47;;;;;;;3.53;2.83;;;;;;;;;;6191601;23;20390;-91
2023/06/28 05:28:13;;;;;;;3.73;2.67;;;;;;;;;;6194642;23;20487;-92
2023/06/28 05:30:43;;;;;;;2.90;2.43;;;;;;;;;;6189743;23;20392;-90
2023/06/28 05:33:09;;;;;;;4.53;2.57;;;;;;;;;;6192501;23;20397;-92
2023/06/28 05:35:35;;;;;;;5.53;2.93;;;;;;;;;;6189637;23;20379;-93
2023/06/28 05:38:02;;;;;;;6.73;2.63;;;;;;;;;;6191016;23;20388;-91
2023/06/28 05:40:28;;;;;;;6.90;3.73;;;;;;;;;;6190874;23;20785;-92
2023/06/28 05:42:54;;;;;;;5.13;2.97;;;;;;;;;;6193115;23;20376;-91
2023/06/28 05:45:21;;;;;;;4.60;3.00;;;;;;;;;;6190759;23;20396;-92
2023/06/28 05:47:49;;;;;;;5.13;2.73;;;;;;;;;;6195000;23;20447;-91
2023/06/28 05:50:17;;;;;;;3.60;2.90;;;;;;;;;;6191442;23;20383;-91
2023/06/28 05:52:44;;;;;;;7.87;2.87;;;;;;;;;;6192225;23;20704;-91
2023/06/28 05:55:10;;;;;;;4.70;2.63;;;;;;;;;;6191207;23;20470;-92
2023/06/28 05:57:37;;;;;;;6.03;3.77;;;;;;;;;;6197083;23;20380;-92
2023/06/28 06:00:04;;;;;;;4.47;2.87;;;;;;;;;;6192267;23;20387;-92
2023/06/28 06:02:33;;;;;;;8.23;2.93;;;;;;;;;;6192605;23;20384;-92
2023/06/28 06:04:59;;;;;;;3.70;2.40;;;;;;;;;;6191433;23;20415;-92
2023/06/28 06:07:25;;;;;;;4.10;2.53;;;;;;;;;;6193545;23;20407;-92
2023/06/28 06:09:51;;;;;;;5.40;2.70;;;;;;;;;;6194430;23;20722;-91
2023/06/28 06:12:18;;;;;;;3.77;2.60;;;;;;;;;;6194101;23;20376;-92
2023/06/28 06:14:44;;;;;;;7.77;2.43;;;;;;;;;;6194711;23;20384;-91
2023/06/28 06:17:10;;;;;;;5.10;3.00;;;;;;;;;;6194802;23;20829;-91
2023/06/28 06:19:36;;;;;;;3.30;2.50;;;;;;;;;;6195190;23;20430;-91
2023/06/28 06:22:03;;;;;;;3.13;2.30;;;;;;;;;;6193954;23;20399;-94
2023/06/28 06:24:29;;;;;;;5.13;2.97;;;;;;;;;;6134552;23;20486;-93
2023/06/28 06:26:55;;;;;;;5.27;2.40;;;;;;;;;;6104437;23;20387;-93
2023/06/28 06:29:21;;;;;;;5.93;2.87;;;;;;;;;;6108125;23;20429;-93
2023/06/28 06:31:47;;;;;;;4.73;2.77;;;;;;;;;;6104575;23;20431;-94
2023/06/28 06:34:13;;;;;;;4.37;2.40;;;;;;;;;;6106384;23;20429;-94
2023/06/28 06:36:40;;;;;;;2.60;2.23;;;;;;;;;;6105621;23;20437;-92
2023/06/28 06:39:06;;;;;;;3.27;2.70;;;;;;;;;;6101723;23;20407;-91
2023/06/28 06:41:32;;;;;;;5.20;2.87;;;;;;;;;;6101246;23;20408;-93
2023/06/28 06:43:58;;;;;;;3.20;2.90;;;;;;;;;;6103701;23;20462;-91
2023/06/28 06:46:24;;;;;;;3.37;2.67;;;;;;;;;;6101241;23;20541;-91
2023/06/28 06:48:50;;;;;;;4.13;2.43;;;;;;;;;;6104810;23;20430;-91
2023/06/28 06:51:19;;;;;;;5.00;2.40;;;;;;;;;;6101248;23;20437;-92
2023/06/28 06:53:45;;;;;;;4.80;2.73;;;;;;;;;;6101172;23;20883;-92
2023/06/28 06:56:11;;;;;;;5.73;2.60;;;;;;;;;;6124610;23;20405;-91
2023/06/28 06:58:37;;;;;;;2.53;2.30;;;;;;;;;;6179912;23;20380;-90
2023/06/28 07:01:03;;;;;;;6.73;2.40;;;;;;;;;;6191457;23;20391;-91
2023/06/28 07:03:29;;;;;;;3.73;3.27;;;;;;;;;;6195486;23;20438;-92
2023/06/28 07:05:55;;;;;;;3.60;2.50;;;;;;;;;;6193806;23;20763;-91
2023/06/28 07:08:22;;;;;;;4.93;2.57;;;;;;;;;;6193814;23;20513;-92
2023/06/28 07:10:48;;;;;;;4.13;2.23;;;;;;;;;;6165710;23;20418;-91
2023/06/28 07:13:14;;;;;;;3.00;2.60;;;;;;;;;;6189605;23;20407;-91
2023/06/28 07:15:40;;;;;;;4.50;2.90;;;;;;;;;;6191031;23;20375;-92
2023/06/28 07:18:06;;;;;;;4.60;2.90;;;;;;;;;;6193449;23;20388;-91
2023/06/28 07:20:32;;;;;;;7.47;2.47;;;;;;;;;;6194610;23;20372;-92
2023/06/28 07:22:58;;;;;;;4.70;2.30;;;;;;;;;;6193906;23;20444;-93
2023/06/28 07:25:24;;;;;;;4.73;2.50;;;;;;;;;;6193032;23;20383;-91
2023/06/28 07:27:52;;;;;;;4.57;2.10;;;;;;;;;;6191736;23;20427;-92
2023/06/28 07:30:18;;;;;;;3.50;2.53;;;;;;;;;;6191786;23;20387;-92
2023/06/28 07:32:43;;;;;;;5.43;3.17;;;;;;;;;;6192728;23;20384;-92
2023/06/28 07:35:15;;;;;;;3.20;2.20;;;;;;;;;;6190982;23;20435;-91
2023/06/28 07:37:41;;;;;;;5.27;2.97;;;;;;;;;;6192243;23;20878;-93
2023/06/28 07:40:07;;;;;;;6.00;2.70;;;;;;;;;;6190044;23;20400;-92
2023/06/28 07:42:36;;;;;;;3.60;3.17;;;;;;;;;;6193121;23;20376;-93
2023/06/28 07:45:03;;;;;;;7.53;2.67;;;;;;;;;;6191819;23;20396;-92
2023/06/28 07:47:29;;;;;;;3.57;2.30;;;;;;;;;;6190711;23;20888;-92
2023/06/28 07:49:55;;;;;;;4.90;2.90;;;;;;;;;;6190523;23;20379;-91
2023/06/28 07:52:21;;;;;;;4.90;2.63;;;;;;;;;;6161709;23;20412;-93
2023/06/28 07:54:47;;;;;;;4.90;3.70;;;;;;;;;;6110339;23;20377;-93
2023/06/28 07:57:13;;;;;;;5.17;3.40;;;;;;;;;;6112838;23;20461;-95
2023/06/28 07:59:39;;;;;;;5.27;2.97;;;;;;;;;;6110127;23;20388;-93
2023/06/28 08:02:08;;;;;;;5.07;2.60;;;;;;;;;;6112596;23;20431;-93
2023/06/28 08:04:34;;;;;;;5.67;2.67;;;;;;;;;;6110754;23;20400;-93
2023/06/28 08:07:00;;;;;;;5.73;2.67;;;;;;;;;;6113170;23;20448;-93
2023/06/28 08:09:27;;;;;;;3.50;2.23;;;;;;;;;;6135477;23;20397;-93
2023/06/28 08:11:53;;;;;;;4.90;2.40;;;;;;;;;;6110593;23;20392;-93
2023/06/28 08:14:19;;;;;;;5.97;2.43;;;;;;;;;;6111965;23;20381;-93
2023/06/28 08:16:45;;;;;;;6.23;3.00;;;;;;;;;;6109978;23;20771;-94
2023/06/28 08:19:13;;;;;;;3.77;2.37;;;;;;;;;;6111536;23;20399;-93
2023/06/28 08:21:39;;;;;;;3.70;2.40;;;;;;;;;;6112240;23;20667;-93
2023/06/28 08:24:05;;;;;;;6.37;2.30;;;;;;;;;;6136798;23;20991;-93
2023/06/28 08:26:31;;;;;;;4.80;2.47;;;;;;;;;;6189822;23;20392;-90
2023/06/28 08:28:57;;;;;;;3.57;2.87;;;;;;;;;;6191138;23;20810;-93
2023/06/28 08:31:24;;;;;;;2.90;2.23;;;;;;;;;;6190153;23;20419;-92
2023/06/28 08:33:50;;;;;;;3.50;2.80;;;;;;;;;;6190382;23;20976;-92
2023/06/28 08:36:16;;;;;;;5.60;2.20;;;;;;;;;;6189301;23;20973;-92
2023/06/28 08:38:42;;;;;;;5.50;3.13;;;;;;;;;;6193869;23;20396;-92
2023/06/28 08:41:09;;;;;;;3.40;2.33;;;;;;;;;;6189185;23;20371;-93
2023/06/28 08:43:35;;;;;;;3.50;1.90;;;;;;;;;;6190519;23;20863;-92
2023/06/28 08:46:01;;;;;;;4.00;2.60;;;;;;;;;;6192470;23;20501;-93
2023/06/28 08:48:27;;;;;;;3.33;2.53;;;;;;;;;;6190969;23;20419;-92
2023/06/28 08:50:53;;;;;;;4.80;2.50;;;;;;;;;;6191182;23;20919;-92
2023/06/28 08:53:19;;;;;;;3.77;2.40;;;;;;;;;;6190931;23;20390;-93
2023/06/28 08:55:47;;;;;;;9.93;2.80;;;;;;;;;;6191711;23;20368;-92
2023/06/28 08:58:13;;;;;;;4.43;2.57;;;;;;;;;;6189471;23;20415;-92
2023/06/28 09:00:42;;;;;;;7.50;2.73;;;;;;;;;;6191599;23;20431;-91
2023/06/28 09:03:08;;;;;;;6.40;2.53;;;;;;;;;;6158883;23;20385;-92
2023/06/28 09:05:34;;;;;;;6.53;2.80;;;;;;;;;;6111185;23;20419;-91
2023/06/28 09:08:00;;;;;;;4.77;2.50;;;;;;;;;;6108575;23;20425;-92
2023/06/28 09:10:28;;;;;;;4.10;2.27;;;;;;;;;;6113867;23;20468;-93
2023/06/28 09:12:54;;;;;;;3.37;2.60;;;;;;;;;;6115349;23;20393;-94
2023/06/28 09:15:22;;;;;;;3.37;2.33;;;;;;;;;;6116264;23;20393;-94
2023/06/28 09:17:48;;;;;;;6.53;2.90;;;;;;;;;;6114681;23;20416;-93
2023/06/28 09:20:17;;;;;;;3.37;2.70;;;;;;;;;;6109764;23;20397;-92
2023/06/28 09:22:43;;;;;;;3.83;2.50;;;;;;;;;;6134923;23;20431;-90
2023/06/28 09:25:10;;;;;;;5.37;2.60;;;;;;;;;;6112742;23;20497;-91
2023/06/28 09:27:36;;;;;;;3.70;2.67;;;;;;;;;;6113549;23;20455;-90
2023/06/28 09:30:02;;;;;;;2.90;2.13;;;;;;;;;;6112149;23;20377;-91
2023/06/28 09:32:38;;;;;;;2.93;2.37;;;;;;;;;;6111500;23;20381;-90
2023/06/28 09:35:08;;;;;;;3.20;2.40;;;;;;;;;;6162658;23;20426;-91
2023/06/28 09:37:34;;;;;;;3.30;2.50;;;;;;;;;;6191015;23;20372;-90
2023/06/28 09:40:00;;;;;;;4.60;2.50;;;;;;;;;;6193213;23;20414;-92
2023/06/28 09:42:26;;;;;;;4.50;2.60;;;;;;;;;;6192757;23;20384;-91
2023/06/28 09:44:56;;;;;;;5.00;2.53;;;;;;;;;;6191130;23;20379;-90
2023/06/28 09:47:25;;;;;;;7.27;3.17;;;;;;;;;;6194303;23;20722;-91
2023/06/28 09:49:57;;;;;;;7.13;2.70;;;;;;;;;;6192833;23;20506;-89
2023/06/28 09:52:23;;;;;;;4.83;2.80;;;;;;;;;;6191724;23;20376;-91
2023/06/28 09:54:51;;;;;;;5.80;2.37;;;;;;;;;;6191982;23;20372;-88
2023/06/28 09:57:17;;;;;;;5.63;2.50;;;;;;;;;;6170678;23;20395;-89
2023/06/28 09:59:48;;;;;;;6.13;2.43;;;;;;;;;;6191349;23;20372;-90
2023/06/28 10:02:14;;;;;;;4.50;2.80;;;;;;;;;;6167654;23;20392;-91
2023/06/28 10:04:40;;;;;;;3.80;2.10;;;;;;;;;;6187773;23;20380;-91
2023/06/28 10:07:06;;;;;;;5.40;4.80;;;;;;;;;;6187221;23;20383;-91
2023/06/28 10:09:34;;;;;;;8.87;2.63;;;;;;;;;;6189995;23;20430;-90
2023/06/28 10:12:01;;;;;;;5.20;2.50;;;;;;;;;;6192000;23;20396;-91
2023/06/28 10:14:27;;;;;;;8.00;2.47;;;;;;;;;;6191702;23;20402;-92
2023/06/28 10:16:54;;;;;;;6.37;2.53;;;;;;;;;;6195181;23;20416;-91
2023/06/28 10:19:20;;;;;;;3.83;2.50;;;;;;;;;;6166793;23;20411;-91
2023/06/28 10:21:47;;;;;;;3.60;2.30;;;;;;;;;;6192940;23;20391;-91
2023/06/28 10:24:13;;;;;;;7.27;2.53;;;;;;;;;;6191652;23;20384;-91
2023/06/28 10:26:39;;;;;;;5.30;2.50;;;;;;;;;;6195090;23;20392;-94
2023/06/28 10:29:05;;;;;;;4.87;2.23;;;;;;;;;;6194148;23;20456;-93
2023/06/28 10:31:31;;;;;;;4.73;2.03;;;;;;;;;;6191989;23;20380;-91
2023/06/28 10:33:57;;;;;;;5.63;2.50;;;;;;;;;;6190868;23;20383;-91
2023/06/28 10:36:23;;;;;;;8.03;2.50;;;;;;;;;;6193065;23;21209;-92
2023/06/28 10:38:49;;;;;;;7.90;2.53;;;;;;;;;;6191279;23;20900;-92
2023/06/28 10:41:15;;;;;;;4.80;3.53;;;;;;;;;;6193128;23;20395;-91
2023/06/28 10:43:41;;;;;;;9.00;2.93;;;;;;;;;;6191149;23;20364;-91
2023/06/28 10:46:25;;;;;;;6.40;2.57;;;;;;;;;;6193910;23;20398;-91
2023/06/28 10:48:54;;;;;;;3.77;2.40;;;;;;;;;;6191164;23;20431;-92
2023/06/28 10:51:22;;;;;;;6.90;3.10;;;;;;;;;;6192377;23;20394;-92
2023/06/28 10:53:56;;;;;;;5.53;2.10;;;;;;;;;;6192378;23;20391;-92
2023/06/28 10:56:22;;;;;;;4.57;2.30;;;;;;;;;;6192456;23;20372;-92
2023/06/28 10:58:48;;;;;;;3.63;2.97;;;;;;;;;;6192723;23;20407;-92
2023/06/28 11:01:37;;;;;;;5.00;2.93;;;;;;;;;;6195655;23;20719;-94
2023/06/28 11:04:16;;;;;;;4.17;2.20;;;;;;;;;;6198024;23;20349;-95
2023/06/28 11:06:42;;;;;;;4.13;2.40;;;;;;;;;;6174353;23;20351;-93
2023/06/28 11:09:13;;;;;;;3.87;2.60;;;;;;;;;;6198275;23;20455;-94
2023/06/28 11:11:41;;;;;;;3.60;3.20;;;;;;;;;;6176017;23;20383;-96
2023/06/28 11:14:25;;;;;;;5.03;2.57;;;;;;;;;;6196796;23;20709;-94
2023/06/28 11:16:51;;;;;;;4.77;2.67;;;;;;;;;;6202620;23;20399;-95
2023/06/28 11:19:18;;;;;;;3.90;2.37;;;;;;;;;;6198313;23;20380;-95
2023/06/28 11:21:49;;;;;;;5.20;2.27;;;;;;;;;;6196765;23;20387;-95
2023/06/28 11:24:24;;;;;;;3.53;2.30;;;;;;;;;;6136915;23;20389;-95
2023/06/28 11:26:50;;;;;;;6.83;2.47;;;;;;;;;;6137580;23;20377;-96
2023/06/28 11:29:17;;;;;;;3.83;2.10;;;;;;;;;;6159313;23;20438;-95
2023/06/28 11:31:44;;;;;;;10.30;2.90;;;;;;;;;;6164983;23;20457;-95
2023/06/28 11:34:10;;;;;;;7.47;2.17;;;;;;;;;;6161924;23;20462;-96
2023/06/28 11:36:37;;;;;;;3.33;2.00;;;;;;;;;;6162792;23;20386;-96
2023/06/28 11:39:04;;;;;;;5.33;2.60;;;;;;;;;;6163516;23;20406;-96
2023/06/28 11:41:34;;;;;;;6.03;2.50;;;;;;;;;;6165203;23;20394;-96
2023/06/28 11:44:04;;;;;;;3.90;2.30;;;;;;;;;;6165339;23;20426;-96
2023/06/28 11:46:32;;;;;;;3.63;2.37;;;;;;;;;;6168427;23;20441;-96
2023/06/28 11:49:03;;;;;;;3.77;2.80;;;;;;;;;;6167390;23;20433;-96
2023/06/28 11:51:29;;;;;;;3.80;2.27;;;;;;;;;;6165501;23;20393;-96
2023/06/28 11:53:55;;;;;;;5.60;2.57;;;;;;;;;;6169691;23;20902;-96
2023/06/28 11:56:34;;;;;;;4.73;2.70;;;;;;;;;;6231412;23;20420;-96
2023/06/28 11:59:12;;;;;;;5.03;2.00;;;;;;;;;;6206786;23;20368;-96
2023/06/28 12:01:38;;;;;;;3.70;2.00;;;;;;;;;;6182347;23;20376;-96
2023/06/28 12:04:17;;;;;;;3.40;1.40;;;;;;;;;;6207750;23;20399;-96
2023/06/28 12:06:46;;;;;;;5.10;2.47;;;;;;;;;;6202003;23;20995;-94
2023/06/28 12:09:18;;;;;;;3.57;2.03;;;;;;;;;;6198251;23;20447;-94
2023/06/28 12:11:54;;;;;;;4.23;2.30;;;;;;;;;;6173503;23;20491;-95
2023/06/28 12:14:27;;;;;;;3.70;1.70;;;;;;;;;;6202491;23;20392;-96
2023/06/28 12:16:55;;;;;;;4.70;2.00;;;;;;;;;;6181279;23;20368;-96
2023/06/28 12:19:33;;;;;;;4.20;2.47;;;;;;;;;;6200475;23;20371;-96
2023/06/28 12:22:03;;;;;;;4.97;2.20;;;;;;;;;;6202919;23;20359;-95
2023/06/28 12:24:29;;;;;;;3.30;2.10;;;;;;;;;;6199668;23;20436;-94
2023/06/28 12:26:57;;;;;;;5.00;2.30;;;;;;;;;;6196438;23;20430;-93
2023/06/28 12:29:24;;;;;;;3.40;2.40;;;;;;;;;;6195549;23;20474;-93
2023/06/28 12:31:51;;;;;;;3.27;2.10;;;;;;;;;;6198003;23;20450;-93
2023/06/28 12:34:23;;;;;;;3.53;2.33;;;;;;;;;;6195059;23;20388;-94
2023/06/28 12:36:51;;;;;;;5.40;1.93;;;;;;;;;;6174891;23;20399;-95
2023/06/28 12:39:22;;;;;;;3.70;2.10;;;;;;;;;;6196801;23;20395;-95
2023/06/28 12:42:08;;;;;;;3.53;2.60;;;;;;;;;;6169502;23;20404;-95
2023/06/28 12:44:56;;;;;;;3.87;1.90;;;;;;;;;;6143905;23;20472;-95
2023/06/28 12:47:25;;;;;;;5.10;2.17;;;;;;;;;;6120613;23;20381;-95
2023/06/28 12:49:51;;;;;;;3.33;2.20;;;;;;;;;;6141341;23;20444;-94
2023/06/28 12:52:18;;;;;;;6.50;2.40;;;;;;;;;;6122217;23;20365;-94
2023/06/28 12:54:46;;;;;;;4.90;2.43;;;;;;;;;;6117861;23;20373;-95
2023/06/28 12:57:13;;;;;;;4.20;2.83;;;;;;;;;;6117948;23;20369;-95
2023/06/28 12:59:42;;;;;;;6.20;2.07;;;;;;;;;;6118327;23;20380;-95
2023/06/28 13:02:08;;;;;;;6.90;2.50;;;;;;;;;;6122151;23;20383;-95
2023/06/28 13:04:35;;;;;;;3.67;2.10;;;;;;;;;;6116585;23;20445;-94
2023/06/28 13:07:03;;;;;;;3.93;1.90;;;;;;;;;;6116262;23;20389;-96
2023/06/28 13:09:29;;;;;;;7.60;2.57;;;;;;;;;;6117142;23;20432;-96
2023/06/28 13:11:55;;;;;;;3.23;1.90;;;;;;;;;;6125700;23;20403;-95
2023/06/28 13:14:22;;;;;;;4.43;3.20;;;;;;;;;;6126894;23;20900;-96
2023/06/28 13:16:48;;;;;;;3.80;2.30;;;;;;;;;;6121313;23;20447;-96
2023/06/28 13:19:14;;;;;;;10.80;2.20;;;;;;;;;;6122733;23;20394;-95
2023/06/28 13:21:40;;;;;;;5.07;2.07;;;;;;;;;;6123171;23;20415;-96
2023/06/28 13:24:07;;;;;;;5.50;2.30;;;;;;;;;;6127031;23;20423;-96
2023/06/28 13:26:38;;;;;;;5.40;2.50;;;;;;;;;;6126272;23;20436;-95
2023/06/28 13:31:56;;;;;;;3.43;2.37;;;;;;;;;;6229724;22;20566;-93
2023/06/28 13:34:25;;;;;;;4.00;2.27;;;;;;;;;;6235921;22;20375;-93
2023/06/28 13:36:51;;;;;;;3.10;2.30;;;;;;;;;;6231577;22;20387;-93
2023/06/28 13:39:17;;;;;;;3.20;2.00;;;;;;;;;;6205523;23;20474;-93
2023/06/28 13:41:43;;;;;;;4.20;2.27;;;;;;;;;;6203523;23;20398;-93
2023/06/28 13:44:10;;;;;;;5.43;2.23;;;;;;;;;;6203975;23;20395;-93
2023/06/28 14:04:49;;;;;;;4.83;2.50;;;;;;;;;;6198955;22;20470;-95
2023/06/28 14:07:21;;;;;;;6.63;2.30;;;;;;;;;;6149821;23;20395;-93
2023/06/28 14:09:47;;;;;;;5.20;2.70;;;;;;;;;;6151603;23;20420;-95
2023/06/28 14:12:17;;;;;;;4.47;2.57;;;;;;;;;;6152713;23;20384;-94
2023/06/28 14:14:43;;;;;;;3.90;2.93;;;;;;;;;;6175468;23;20372;-93
2023/06/28 14:17:18;;;;;;;6.93;3.17;;;;;;;;;;6152706;23;20378;-94
2023/06/28 14:24:56;;;;;;;3.47;2.20;;;;;;;;;;6192082;22;20484;-90
2023/06/28 14:29:57;;;;;;;5.43;2.37;;;;;;;;;;6185029;22;20435;-89
2023/06/28 14:32:28;;;;;;;3.83;2.00;;;;;;;;;;6172309;23;20435;-93
2023/06/28 14:34:54;;;;;;;4.23;2.23;;;;;;;;;;6197908;22;20383;-94
2023/06/28 14:37:20;;;;;;;3.87;2.20;;;;;;;;;;6174953;23;20392;-93
2023/06/28 14:39:46;;;;;;;3.20;2.50;;;;;;;;;;6171302;23;20383;-93
2023/06/28 14:42:12;;;;;;;3.47;2.60;;;;;;;;;;6172733;23;20380;-95
2023/06/28 14:44:38;;;;;;;5.30;2.57;;;;;;;;;;6171707;23;20403;-96
2023/06/28 14:47:05;;;;;;;3.20;2.20;;;;;;;;;;6174293;23;20392;-96
2023/06/28 14:49:31;;;;;;;4.13;2.67;;;;;;;;;;6174076;23;20428;-95
2023/06/28 14:51:58;;;;;;;7.27;3.23;;;;;;;;;;6173358;23;20396;-95
2023/06/28 14:54:24;;;;;;;4.77;2.43;;;;;;;;;;6172329;23;20403;-95
2023/06/28 14:56:50;;;;;;;3.40;2.40;;;;;;;;;;6172533;23;20419;-95
2023/06/28 14:59:20;;;;;;;5.50;2.40;;;;;;;;;;6200096;23;20360;-95
2023/06/28 15:01:46;;;;;;;5.13;2.67;;;;;;;;;;6174376;23;20876;-93
2023/06/28 15:04:13;;;;;;;4.80;2.70;;;;;;;;;;6175358;23;20348;-94
2023/06/28 15:06:40;;;;;;;7.23;2.40;;;;;;;;;;6174622;23;20482;-95
2023/06/28 15:09:06;;;;;;;3.27;2.53;;;;;;;;;;6173782;23;20920;-95
2023/06/28 15:11:42;;;;;;;4.23;2.43;;;;;;;;;;6173560;23;20875;-96
2023/06/28 15:14:08;;;;;;;8.17;2.80;;;;;;;;;;6200117;23;20459;-96
2023/06/28 15:16:35;;;;;;;5.90;2.73;;;;;;;;;;6175239;23;20384;-96
2023/06/28 15:19:05;;;;;;;5.60;2.13;;;;;;;;;;6175492;23;20393;-93